sensor_id;sensor_type;location;lat;lon;timestamp;temperature;humidity
13223;DHT22;6676;45.192;5.722;2023-04-24T00:02:30;12.30;99.90
13223;DHT22;6676;45.192;5.722;2023-04-24T00:05:25;12.30;99.90
13223;DHT22;6676;45.192;5.722;2023-04-24T00:08:16;12.30;99.90
13223;DHT22;6676;45.192;5.722;2023-04-24T00:11:07;12.30;99.90
13223;DHT22;6676;45.192;5.722;2023-04-24T00:13:59;12.30;99.90
13223;DHT22;6676;45.192;5.722;2023-04-24T00:16:51;12.30;99.90
13223;DHT22;6676;45.192;5.722;2023-04-24T00:19:42;12.30;99.90
13223;DHT22;6676;45.192;5.722;2023-04-24T00:22:34;12.30;99.90
13223;DHT22;6676;45.192;5.722;2023-04-24T00:25:25;12.30;99.90
13223;DHT22;6676;45.192;5.722;2023-04-24T00:28:17;12.30;99.90
13223;DHT22;6676;45.192;5.722;2023-04-24T00:31:08;12.30;99.90
13223;DHT22;6676;45.192;5.722;2023-04-24T00:33:59;12.40;99.90
13223;DHT22;6676;45.192;5.722;2023-04-24T00:36:51;12.30;99.90
13223;DHT22;6676;45.192;5.722;2023-04-24T00:39:42;12.30;99.90
13223;DHT22;6676;45.192;5.722;2023-04-24T00:42:34;12.30;99.90
13223;DHT22;6676;45.192;5.722;2023-04-24T00:45:26;12.30;99.90
13223;DHT22;6676;45.192;5.722;2023-04-24T00:48:18;12.30;99.90
13223;DHT22;6676;45.192;5.722;2023-04-24T00:51:10;12.20;99.90
13223;DHT22;6676;45.192;5.722;2023-04-24T00:54:01;12.20;99.90
13223;DHT22;6676;45.192;5.722;2023-04-24T00:56:53;12.20;99.90
13223;DHT22;6676;45.192;5.722;2023-04-24T00:59:45;12.20;99.90
13223;DHT22;6676;45.192;5.722;2023-04-24T01:02:37;12.20;99.90
13223;DHT22;6676;45.192;5.722;2023-04-24T01:08:13;12.20;99.90
13223;DHT22;6676;45.192;5.722;2023-04-24T01:11:05;12.30;99.90
13223;DHT22;6676;45.192;5.722;2023-04-24T01:13:57;12.30;99.90
13223;DHT22;6676;45.192;5.722;2023-04-24T01:16:49;12.20;99.90
13223;DHT22;6676;45.192;5.722;2023-04-24T01:19:42;12.20;99.90
13223;DHT22;6676;45.192;5.722;2023-04-24T01:22:35;12.20;99.90
13223;DHT22;6676;45.192;5.722;2023-04-24T01:25:33;12.30;99.90
13223;DHT22;6676;45.192;5.722;2023-04-24T01:28:24;12.30;99.90
13223;DHT22;6676;45.192;5.722;2023-04-24T01:31:15;12.30;99.90
13223;DHT22;6676;45.192;5.722;2023-04-24T01:34:08;12.20;99.90
13223;DHT22;6676;45.192;5.722;2023-04-24T01:36:59;12.10;99.90
13223;DHT22;6676;45.192;5.722;2023-04-24T01:39:51;12.10;99.90
13223;DHT22;6676;45.192;5.722;2023-04-24T01:42:44;12.20;99.90
13223;DHT22;6676;45.192;5.722;2023-04-24T01:45:36;12.20;99.90
13223;DHT22;6676;45.192;5.722;2023-04-24T01:48:28;12.20;99.90
13223;DHT22;6676;45.192;5.722;2023-04-24T01:51:20;12.00;99.90
13223;DHT22;6676;45.192;5.722;2023-04-24T01:54:12;12.10;99.90
13223;DHT22;6676;45.192;5.722;2023-04-24T01:57:03;12.10;99.90
13223;DHT22;6676;45.192;5.722;2023-04-24T01:59:55;12.10;99.90
13223;DHT22;6676;45.192;5.722;2023-04-24T02:02:46;12.10;99.90
13223;DHT22;6676;45.192;5.722;2023-04-24T02:05:38;12.10;99.90
13223;DHT22;6676;45.192;5.722;2023-04-24T02:08:30;12.10;99.90
13223;DHT22;6676;45.192;5.722;2023-04-24T02:11:21;12.10;99.90
13223;DHT22;6676;45.192;5.722;2023-04-24T02:14:13;12.10;99.90
13223;DHT22;6676;45.192;5.722;2023-04-24T02:17:04;12.20;99.90
13223;DHT22;6676;45.192;5.722;2023-04-24T02:20:00;12.20;99.90
13223;DHT22;6676;45.192;5.722;2023-04-24T02:22:53;12.20;99.90
13223;DHT22;6676;45.192;5.722;2023-04-24T02:25:45;12.20;99.90
13223;DHT22;6676;45.192;5.722;2023-04-24T02:28:38;12.20;99.90
13223;DHT22;6676;45.192;5.722;2023-04-24T02:31:30;12.20;99.90
13223;DHT22;6676;45.192;5.722;2023-04-24T02:34:22;12.20;99.90
13223;DHT22;6676;45.192;5.722;2023-04-24T02:37:14;12.30;99.90
13223;DHT22;6676;45.192;5.722;2023-04-24T02:40:08;12.30;99.90
13223;DHT22;6676;45.192;5.722;2023-04-24T02:43:00;12.10;99.90
13223;DHT22;6676;45.192;5.722;2023-04-24T02:45:51;12.10;99.90
13223;DHT22;6676;45.192;5.722;2023-04-24T02:48:43;12.00;99.90
13223;DHT22;6676;45.192;5.722;2023-04-24T02:51:34;12.00;99.90
13223;DHT22;6676;45.192;5.722;2023-04-24T02:54:27;12.10;99.90
13223;DHT22;6676;45.192;5.722;2023-04-24T02:57:19;12.10;99.90
13223;DHT22;6676;45.192;5.722;2023-04-24T03:00:12;12.00;99.90
13223;DHT22;6676;45.192;5.722;2023-04-24T03:03:04;12.00;99.90
13223;DHT22;6676;45.192;5.722;2023-04-24T03:05:57;11.90;99.90
13223;DHT22;6676;45.192;5.722;2023-04-24T03:08:49;11.90;99.90
13223;DHT22;6676;45.192;5.722;2023-04-24T03:11:40;11.90;99.90
13223;DHT22;6676;45.192;5.722;2023-04-24T03:14:32;11.90;99.90
13223;DHT22;6676;45.192;5.722;2023-04-24T03:17:23;12.00;99.90
13223;DHT22;6676;45.192;5.722;2023-04-24T03:20:15;12.00;99.90
13223;DHT22;6676;45.192;5.722;2023-04-24T03:23:07;12.00;99.90
13223;DHT22;6676;45.192;5.722;2023-04-24T03:25:59;12.00;99.90
13223;DHT22;6676;45.192;5.722;2023-04-24T03:28:51;12.00;99.90
13223;DHT22;6676;45.192;5.722;2023-04-24T03:31:43;12.00;99.90
13223;DHT22;6676;45.192;5.722;2023-04-24T03:34:35;11.90;99.90
13223;DHT22;6676;45.192;5.722;2023-04-24T03:37:28;11.90;99.90
13223;DHT22;6676;45.192;5.722;2023-04-24T03:40:27;12.00;99.90
13223;DHT22;6676;45.192;5.722;2023-04-24T03:43:19;12.00;99.90
13223;DHT22;6676;45.192;5.722;2023-04-24T03:46:12;12.00;99.90
13223;DHT22;6676;45.192;5.722;2023-04-24T03:49:06;12.00;99.90
13223;DHT22;6676;45.192;5.722;2023-04-24T03:52:00;12.00;99.90
13223;DHT22;6676;45.192;5.722;2023-04-24T03:54:52;11.90;99.90
13223;DHT22;6676;45.192;5.722;2023-04-24T03:57:44;11.90;99.90
13223;DHT22;6676;45.192;5.722;2023-04-24T04:00:39;11.90;99.90
13223;DHT22;6676;45.192;5.722;2023-04-24T04:03:32;11.90;99.90
13223;DHT22;6676;45.192;5.722;2023-04-24T04:06:24;11.90;99.90
13223;DHT22;6676;45.192;5.722;2023-04-24T04:09:17;12.00;99.90
13223;DHT22;6676;45.192;5.722;2023-04-24T04:12:08;11.90;99.90
13223;DHT22;6676;45.192;5.722;2023-04-24T04:15:04;11.90;99.90
13223;DHT22;6676;45.192;5.722;2023-04-24T04:17:57;11.90;99.90
13223;DHT22;6676;45.192;5.722;2023-04-24T04:20:50;11.90;99.90
13223;DHT22;6676;45.192;5.722;2023-04-24T04:23:41;11.80;99.90
13223;DHT22;6676;45.192;5.722;2023-04-24T04:26:38;11.80;99.90
13223;DHT22;6676;45.192;5.722;2023-04-24T04:29:32;11.80;99.90
13223;DHT22;6676;45.192;5.722;2023-04-24T04:32:25;11.90;99.90
13223;DHT22;6676;45.192;5.722;2023-04-24T04:35:17;11.80;99.90
13223;DHT22;6676;45.192;5.722;2023-04-24T04:38:13;11.80;99.90
13223;DHT22;6676;45.192;5.722;2023-04-24T04:41:06;11.70;99.90
13223;DHT22;6676;45.192;5.722;2023-04-24T04:43:57;11.80;99.90
13223;DHT22;6676;45.192;5.722;2023-04-24T04:46:49;11.80;99.90
13223;DHT22;6676;45.192;5.722;2023-04-24T04:50:08;11.80;99.90
13223;DHT22;6676;45.192;5.722;2023-04-24T04:53:00;11.80;99.90
13223;DHT22;6676;45.192;5.722;2023-04-24T04:55:54;11.70;99.90
13223;DHT22;6676;45.192;5.722;2023-04-24T04:58:47;11.70;99.90
13223;DHT22;6676;45.192;5.722;2023-04-24T05:01:39;11.70;99.90
13223;DHT22;6676;45.192;5.722;2023-04-24T05:04:32;11.70;99.90
13223;DHT22;6676;45.192;5.722;2023-04-24T05:07:24;11.70;99.90
13223;DHT22;6676;45.192;5.722;2023-04-24T05:10:17;11.70;99.90
13223;DHT22;6676;45.192;5.722;2023-04-24T05:13:09;11.70;99.90
13223;DHT22;6676;45.192;5.722;2023-04-24T05:16:03;11.70;99.90
13223;DHT22;6676;45.192;5.722;2023-04-24T05:18:56;11.60;99.90
13223;DHT22;6676;45.192;5.722;2023-04-24T05:21:49;11.60;99.90
13223;DHT22;6676;45.192;5.722;2023-04-24T05:24:42;11.60;99.90
13223;DHT22;6676;45.192;5.722;2023-04-24T05:27:43;11.60;99.90
13223;DHT22;6676;45.192;5.722;2023-04-24T05:30:37;11.70;99.90
13223;DHT22;6676;45.192;5.722;2023-04-24T05:33:28;11.70;99.90
13223;DHT22;6676;45.192;5.722;2023-04-24T05:36:25;11.70;99.90
13223;DHT22;6676;45.192;5.722;2023-04-24T05:39:19;11.80;99.90
13223;DHT22;6676;45.192;5.722;2023-04-24T05:42:13;11.90;99.90
13223;DHT22;6676;45.192;5.722;2023-04-24T05:45:06;11.90;99.90
13223;DHT22;6676;45.192;5.722;2023-04-24T05:47:58;12.00;99.90
13223;DHT22;6676;45.192;5.722;2023-04-24T05:50:50;12.00;99.90
13223;DHT22;6676;45.192;5.722;2023-04-24T05:53:42;12.00;99.90
13223;DHT22;6676;45.192;5.722;2023-04-24T05:56:34;12.00;99.90
13223;DHT22;6676;45.192;5.722;2023-04-24T05:59:26;12.00;99.90
13223;DHT22;6676;45.192;5.722;2023-04-24T06:02:19;12.10;99.90
13223;DHT22;6676;45.192;5.722;2023-04-24T06:05:21;12.10;99.90
13223;DHT22;6676;45.192;5.722;2023-04-24T06:08:14;12.10;99.90
13223;DHT22;6676;45.192;5.722;2023-04-24T06:11:09;11.90;99.90
13223;DHT22;6676;45.192;5.722;2023-04-24T06:14:08;11.70;99.90
13223;DHT22;6676;45.192;5.722;2023-04-24T06:17:02;11.60;99.90
13223;DHT22;6676;45.192;5.722;2023-04-24T06:19:55;11.50;99.90
13223;DHT22;6676;45.192;5.722;2023-04-24T06:22:47;11.40;99.90
13223;DHT22;6676;45.192;5.722;2023-04-24T06:25:40;11.40;99.90
13223;DHT22;6676;45.192;5.722;2023-04-24T06:28:33;11.40;99.90
13223;DHT22;6676;45.192;5.722;2023-04-24T06:31:25;11.40;99.90
13223;DHT22;6676;45.192;5.722;2023-04-24T06:34:17;11.40;99.90
13223;DHT22;6676;45.192;5.722;2023-04-24T06:37:08;11.40;99.90
13223;DHT22;6676;45.192;5.722;2023-04-24T06:40:00;11.50;99.90
13223;DHT22;6676;45.192;5.722;2023-04-24T06:42:52;11.50;99.90
13223;DHT22;6676;45.192;5.722;2023-04-24T06:45:43;11.50;99.90
13223;DHT22;6676;45.192;5.722;2023-04-24T06:48:35;11.50;99.90
13223;DHT22;6676;45.192;5.722;2023-04-24T06:51:27;11.50;99.90
13223;DHT22;6676;45.192;5.722;2023-04-24T06:54:18;11.60;99.90
13223;DHT22;6676;45.192;5.722;2023-04-24T06:57:10;11.70;99.90
13223;DHT22;6676;45.192;5.722;2023-04-24T07:00:03;11.90;99.90
13223;DHT22;6676;45.192;5.722;2023-04-24T07:02:56;12.10;99.90
13223;DHT22;6676;45.192;5.722;2023-04-24T07:05:48;12.20;99.90
13223;DHT22;6676;45.192;5.722;2023-04-24T07:08:40;12.20;99.90
13223;DHT22;6676;45.192;5.722;2023-04-24T07:11:32;12.10;99.90
13223;DHT22;6676;45.192;5.722;2023-04-24T07:14:25;12.00;99.90
13223;DHT22;6676;45.192;5.722;2023-04-24T07:17:22;12.00;99.90
13223;DHT22;6676;45.192;5.722;2023-04-24T07:20:14;12.00;99.90
13223;DHT22;6676;45.192;5.722;2023-04-24T07:23:07;12.00;99.90
13223;DHT22;6676;45.192;5.722;2023-04-24T07:26:11;12.00;99.90
13223;DHT22;6676;45.192;5.722;2023-04-24T07:29:06;11.90;99.90
13223;DHT22;6676;45.192;5.722;2023-04-24T07:31:59;12.00;99.90
13223;DHT22;6676;45.192;5.722;2023-04-24T07:34:54;12.00;99.90
13223;DHT22;6676;45.192;5.722;2023-04-24T07:37:51;12.00;99.90
13223;DHT22;6676;45.192;5.722;2023-04-24T07:40:46;12.00;99.90
13223;DHT22;6676;45.192;5.722;2023-04-24T07:43:39;12.00;99.90
13223;DHT22;6676;45.192;5.722;2023-04-24T07:46:34;11.90;99.90
13223;DHT22;6676;45.192;5.722;2023-04-24T07:49:30;11.90;99.90
13223;DHT22;6676;45.192;5.722;2023-04-24T07:52:25;12.00;99.90
13223;DHT22;6676;45.192;5.722;2023-04-24T07:55:22;12.00;99.90
13223;DHT22;6676;45.192;5.722;2023-04-24T07:58:18;12.10;99.90
13223;DHT22;6676;45.192;5.722;2023-04-24T08:01:11;12.30;99.90
13223;DHT22;6676;45.192;5.722;2023-04-24T08:04:07;12.30;99.90
13223;DHT22;6676;45.192;5.722;2023-04-24T08:07:01;12.20;99.90
13223;DHT22;6676;45.192;5.722;2023-04-24T08:09:53;12.30;99.90
13223;DHT22;6676;45.192;5.722;2023-04-24T08:12:46;12.30;99.90
13223;DHT22;6676;45.192;5.722;2023-04-24T08:15:41;12.30;99.90
13223;DHT22;6676;45.192;5.722;2023-04-24T08:21:13;12.40;99.90
13223;DHT22;6676;45.192;5.722;2023-04-24T08:24:06;12.40;99.90
13223;DHT22;6676;45.192;5.722;2023-04-24T08:26:58;12.30;99.90
13223;DHT22;6676;45.192;5.722;2023-04-24T08:29:52;12.30;99.90
13223;DHT22;6676;45.192;5.722;2023-04-24T08:32:43;12.40;99.90
13223;DHT22;6676;45.192;5.722;2023-04-24T08:35:37;12.50;99.90
13223;DHT22;6676;45.192;5.722;2023-04-24T08:38:29;12.70;99.90
13223;DHT22;6676;45.192;5.722;2023-04-24T08:41:21;12.80;99.90
13223;DHT22;6676;45.192;5.722;2023-04-24T08:44:16;12.90;99.90
13223;DHT22;6676;45.192;5.722;2023-04-24T08:47:08;13.00;99.90
13223;DHT22;6676;45.192;5.722;2023-04-24T08:50:00;13.10;99.90
13223;DHT22;6676;45.192;5.722;2023-04-24T08:52:53;13.20;99.90
13223;DHT22;6676;45.192;5.722;2023-04-24T08:55:48;13.30;99.90
13223;DHT22;6676;45.192;5.722;2023-04-24T08:58:41;13.60;99.90
13223;DHT22;6676;45.192;5.722;2023-04-24T09:01:41;13.80;99.90
13223;DHT22;6676;45.192;5.722;2023-04-24T09:04:38;13.80;99.90
13223;DHT22;6676;45.192;5.722;2023-04-24T09:10:14;14.10;99.90
13223;DHT22;6676;45.192;5.722;2023-04-24T09:13:06;14.20;99.90
13223;DHT22;6676;45.192;5.722;2023-04-24T09:15:59;14.20;99.90
13223;DHT22;6676;45.192;5.722;2023-04-24T09:18:51;14.40;99.90
13223;DHT22;6676;45.192;5.722;2023-04-24T09:21:46;14.50;99.90
13223;DHT22;6676;45.192;5.722;2023-04-24T09:24:37;14.80;99.90
13223;DHT22;6676;45.192;5.722;2023-04-24T09:27:30;15.00;99.90
13223;DHT22;6676;45.192;5.722;2023-04-24T09:30:22;15.20;99.90
13223;DHT22;6676;45.192;5.722;2023-04-24T09:33:15;15.20;99.90
13223;DHT22;6676;45.192;5.722;2023-04-24T09:36:07;15.10;99.90
13223;DHT22;6676;45.192;5.722;2023-04-24T09:39:00;15.30;99.90
13223;DHT22;6676;45.192;5.722;2023-04-24T09:41:53;15.50;99.90
13223;DHT22;6676;45.192;5.722;2023-04-24T09:47:27;15.60;99.90
13223;DHT22;6676;45.192;5.722;2023-04-24T09:50:21;15.40;99.90
13223;DHT22;6676;45.192;5.722;2023-04-24T09:53:12;15.40;99.90
13223;DHT22;6676;45.192;5.722;2023-04-24T09:56:07;15.40;99.90
13223;DHT22;6676;45.192;5.722;2023-04-24T09:59:06;15.40;99.90
13223;DHT22;6676;45.192;5.722;2023-04-24T10:01:57;15.50;99.90
13223;DHT22;6676;45.192;5.722;2023-04-24T10:04:56;15.50;99.90
13223;DHT22;6676;45.192;5.722;2023-04-24T10:07:46;15.70;99.90
13223;DHT22;6676;45.192;5.722;2023-04-24T10:10:41;15.90;99.90
13223;DHT22;6676;45.192;5.722;2023-04-24T10:13:33;16.00;99.90
13223;DHT22;6676;45.192;5.722;2023-04-24T10:16:25;16.00;99.90
13223;DHT22;6676;45.192;5.722;2023-04-24T10:19:18;15.90;99.90
13223;DHT22;6676;45.192;5.722;2023-04-24T10:22:10;15.70;99.90
13223;DHT22;6676;45.192;5.722;2023-04-24T10:25:06;15.80;99.90
13223;DHT22;6676;45.192;5.722;2023-04-24T10:27:59;16.10;99.90
13223;DHT22;6676;45.192;5.722;2023-04-24T10:30:55;16.10;99.90
13223;DHT22;6676;45.192;5.722;2023-04-24T10:36:28;15.80;99.90
13223;DHT22;6676;45.192;5.722;2023-04-24T10:39:22;15.80;99.90
13223;DHT22;6676;45.192;5.722;2023-04-24T10:42:17;16.00;99.90
13223;DHT22;6676;45.192;5.722;2023-04-24T10:45:16;15.90;99.90
13223;DHT22;6676;45.192;5.722;2023-04-24T10:48:09;16.00;99.90
13223;DHT22;6676;45.192;5.722;2023-04-24T10:51:04;16.10;99.90
13223;DHT22;6676;45.192;5.722;2023-04-24T10:56:36;16.60;99.90
13223;DHT22;6676;45.192;5.722;2023-04-24T10:59:34;16.90;99.90
13223;DHT22;6676;45.192;5.722;2023-04-24T11:02:35;16.80;99.90
13223;DHT22;6676;45.192;5.722;2023-04-24T11:05:17;16.80;99.90
13223;DHT22;6676;45.192;5.722;2023-04-24T11:08:12;16.80;99.90
13223;DHT22;6676;45.192;5.722;2023-04-24T11:11:10;16.80;99.90
13223;DHT22;6676;45.192;5.722;2023-04-24T11:14:09;16.90;99.90
13223;DHT22;6676;45.192;5.722;2023-04-24T11:16:58;16.90;99.90
13223;DHT22;6676;45.192;5.722;2023-04-24T11:19:57;16.90;99.90
13223;DHT22;6676;45.192;5.722;2023-04-24T11:22:54;16.90;99.90
13223;DHT22;6676;45.192;5.722;2023-04-24T11:25:56;16.80;99.90
13223;DHT22;6676;45.192;5.722;2023-04-24T11:28:48;16.90;99.90
13223;DHT22;6676;45.192;5.722;2023-04-24T11:31:41;16.90;99.90
13223;DHT22;6676;45.192;5.722;2023-04-24T11:34:37;17.00;99.90
13223;DHT22;6676;45.192;5.722;2023-04-24T11:37:34;16.90;99.90
13223;DHT22;6676;45.192;5.722;2023-04-24T11:40:26;16.80;99.90
13223;DHT22;6676;45.192;5.722;2023-04-24T11:43:18;16.80;99.90
13223;DHT22;6676;45.192;5.722;2023-04-24T11:46:10;16.80;99.90
13223;DHT22;6676;45.192;5.722;2023-04-24T11:49:02;17.00;99.90
13223;DHT22;6676;45.192;5.722;2023-04-24T11:51:57;17.00;99.90
13223;DHT22;6676;45.192;5.722;2023-04-24T11:54:50;17.20;99.90
13223;DHT22;6676;45.192;5.722;2023-04-24T11:57:43;17.40;99.90
13223;DHT22;6676;45.192;5.722;2023-04-24T12:00:37;17.50;99.90
13223;DHT22;6676;45.192;5.722;2023-04-24T12:03:30;17.50;99.90
13223;DHT22;6676;45.192;5.722;2023-04-24T12:06:22;17.60;99.90
13223;DHT22;6676;45.192;5.722;2023-04-24T12:09:14;17.60;99.90
13223;DHT22;6676;45.192;5.722;2023-04-24T12:12:07;17.50;99.90
13223;DHT22;6676;45.192;5.722;2023-04-24T12:15:00;17.60;99.90
13223;DHT22;6676;45.192;5.722;2023-04-24T12:17:54;17.60;99.90
13223;DHT22;6676;45.192;5.722;2023-04-24T12:20:45;17.70;99.90
13223;DHT22;6676;45.192;5.722;2023-04-24T12:23:37;17.90;99.90
13223;DHT22;6676;45.192;5.722;2023-04-24T12:26:28;18.00;99.90
13223;DHT22;6676;45.192;5.722;2023-04-24T12:29:22;18.40;99.90
13223;DHT22;6676;45.192;5.722;2023-04-24T12:32:17;18.70;99.90
13223;DHT22;6676;45.192;5.722;2023-04-24T12:35:10;18.90;99.90
13223;DHT22;6676;45.192;5.722;2023-04-24T12:38:07;19.00;99.90
13223;DHT22;6676;45.192;5.722;2023-04-24T12:41:06;19.00;99.90
13223;DHT22;6676;45.192;5.722;2023-04-24T12:43:58;18.90;99.90
13223;DHT22;6676;45.192;5.722;2023-04-24T12:46:49;18.90;99.90
13223;DHT22;6676;45.192;5.722;2023-04-24T12:49:41;19.00;99.90
13223;DHT22;6676;45.192;5.722;2023-04-24T12:52:32;18.90;99.90
13223;DHT22;6676;45.192;5.722;2023-04-24T12:55:24;18.80;99.90
13223;DHT22;6676;45.192;5.722;2023-04-24T12:58:15;18.70;99.90
13223;DHT22;6676;45.192;5.722;2023-04-24T13:01:07;18.70;99.90
13223;DHT22;6676;45.192;5.722;2023-04-24T13:03:58;18.70;99.90
13223;DHT22;6676;45.192;5.722;2023-04-24T13:09:31;18.60;99.90
13223;DHT22;6676;45.192;5.722;2023-04-24T13:12:23;18.70;98.90
13223;DHT22;6676;45.192;5.722;2023-04-24T13:15:15;18.80;98.90
13223;DHT22;6676;45.192;5.722;2023-04-24T13:18:07;18.80;96.80
13223;DHT22;6676;45.192;5.722;2023-04-24T13:20:59;18.40;96.30
13223;DHT22;6676;45.192;5.722;2023-04-24T13:23:50;18.40;96.00
13223;DHT22;6676;45.192;5.722;2023-04-24T13:26:42;18.60;96.00
13223;DHT22;6676;45.192;5.722;2023-04-24T13:29:33;18.70;96.80
13223;DHT22;6676;45.192;5.722;2023-04-24T13:32:25;18.60;96.60
13223;DHT22;6676;45.192;5.722;2023-04-24T13:35:20;18.60;96.60
13223;DHT22;6676;45.192;5.722;2023-04-24T13:38:13;18.60;97.10
13223;DHT22;6676;45.192;5.722;2023-04-24T13:41:05;18.80;97.20
13223;DHT22;6676;45.192;5.722;2023-04-24T13:43:56;19.10;97.40
13223;DHT22;6676;45.192;5.722;2023-04-24T13:46:49;19.40;96.80
13223;DHT22;6676;45.192;5.722;2023-04-24T13:49:41;19.50;96.30
13223;DHT22;6676;45.192;5.722;2023-04-24T13:52:35;19.80;96.20
13223;DHT22;6676;45.192;5.722;2023-04-24T13:55:26;19.70;93.20
13223;DHT22;6676;45.192;5.722;2023-04-24T13:58:18;19.40;91.50
13223;DHT22;6676;45.192;5.722;2023-04-24T14:01:10;19.70;91.10
13223;DHT22;6676;45.192;5.722;2023-04-24T14:04:01;20.40;90.90
13223;DHT22;6676;45.192;5.722;2023-04-24T14:06:53;20.60;89.30
13223;DHT22;6676;45.192;5.722;2023-04-24T14:12:23;21.30;90.10
13223;DHT22;6676;45.192;5.722;2023-04-24T14:15:15;21.80;86.70
13223;DHT22;6676;45.192;5.722;2023-04-24T14:18:07;22.00;83.50
13223;DHT22;6676;45.192;5.722;2023-04-24T14:20:58;21.80;83.60
13223;DHT22;6676;45.192;5.722;2023-04-24T14:23:51;22.30;83.60
13223;DHT22;6676;45.192;5.722;2023-04-24T14:26:42;22.60;82.80
13223;DHT22;6676;45.192;5.722;2023-04-24T14:29:34;22.80;81.60
13223;DHT22;6676;45.192;5.722;2023-04-24T14:32:25;22.60;80.00
13223;DHT22;6676;45.192;5.722;2023-04-24T14:35:17;22.60;79.80
13223;DHT22;6676;45.192;5.722;2023-04-24T14:38:08;22.50;79.10
13223;DHT22;6676;45.192;5.722;2023-04-24T14:41:01;22.30;77.60
13223;DHT22;6676;45.192;5.722;2023-04-24T14:43:55;22.50;78.30
13223;DHT22;6676;45.192;5.722;2023-04-24T14:49:27;22.80;80.10
13223;DHT22;6676;45.192;5.722;2023-04-24T14:52:19;23.30;77.70
13223;DHT22;6676;45.192;5.722;2023-04-24T14:55:10;23.50;75.80
13223;DHT22;6676;45.192;5.722;2023-04-24T14:58:03;24.10;74.10
13223;DHT22;6676;45.192;5.722;2023-04-24T15:00:55;24.10;74.40
13223;DHT22;6676;45.192;5.722;2023-04-24T15:03:46;24.40;71.50
13223;DHT22;6676;45.192;5.722;2023-04-24T15:06:39;24.00;67.80
13223;DHT22;6676;45.192;5.722;2023-04-24T15:09:30;24.30;68.90
13223;DHT22;6676;45.192;5.722;2023-04-24T15:12:23;24.00;66.70
13223;DHT22;6676;45.192;5.722;2023-04-24T15:15:15;23.80;67.30
13223;DHT22;6676;45.192;5.722;2023-04-24T15:18:25;23.40;64.40
13223;DHT22;6676;45.192;5.722;2023-04-24T15:21:18;23.90;65.10
13223;DHT22;6676;45.192;5.722;2023-04-24T15:24:13;23.90;64.90
13223;DHT22;6676;45.192;5.722;2023-04-24T15:27:11;23.80;64.40
13223;DHT22;6676;45.192;5.722;2023-04-24T15:30:04;23.80;64.20
13223;DHT22;6676;45.192;5.722;2023-04-24T15:32:56;24.50;62.40
13223;DHT22;6676;45.192;5.722;2023-04-24T15:35:47;24.50;63.30
13223;DHT22;6676;45.192;5.722;2023-04-24T15:38:41;23.30;62.20
13223;DHT22;6676;45.192;5.722;2023-04-24T15:41:33;22.90;62.90
13223;DHT22;6676;45.192;5.722;2023-04-24T15:44:28;23.10;62.80
13223;DHT22;6676;45.192;5.722;2023-04-24T15:47:23;23.70;62.50
13223;DHT22;6676;45.192;5.722;2023-04-24T15:50:18;23.30;62.80
13223;DHT22;6676;45.192;5.722;2023-04-24T15:53:14;23.00;63.90
13223;DHT22;6676;45.192;5.722;2023-04-24T15:56:18;22.50;65.30
13223;DHT22;6676;45.192;5.722;2023-04-24T15:59:18;23.10;65.90
13223;DHT22;6676;45.192;5.722;2023-04-24T16:02:15;21.70;66.30
13223;DHT22;6676;45.192;5.722;2023-04-24T16:05:13;20.90;67.50
13223;DHT22;6676;45.192;5.722;2023-04-24T16:08:08;20.60;69.80
13223;DHT22;6676;45.192;5.722;2023-04-24T16:11:03;20.70;69.40
13223;DHT22;6676;45.192;5.722;2023-04-24T16:13:59;21.00;69.10
13223;DHT22;6676;45.192;5.722;2023-04-24T16:16:51;23.00;68.00
13223;DHT22;6676;45.192;5.722;2023-04-24T16:19:44;24.00;66.50
13223;DHT22;6676;45.192;5.722;2023-04-24T16:22:35;24.10;64.30
13223;DHT22;6676;45.192;5.722;2023-04-24T16:25:28;23.50;64.70
13223;DHT22;6676;45.192;5.722;2023-04-24T16:28:19;23.80;64.60
13223;DHT22;6676;45.192;5.722;2023-04-24T16:31:11;24.00;65.40
13223;DHT22;6676;45.192;5.722;2023-04-24T16:34:03;24.30;63.80
13223;DHT22;6676;45.192;5.722;2023-04-24T16:36:55;24.40;62.80
13223;DHT22;6676;45.192;5.722;2023-04-24T16:39:47;24.20;64.10
13223;DHT22;6676;45.192;5.722;2023-04-24T16:42:38;24.20;61.50
13223;DHT22;6676;45.192;5.722;2023-04-24T16:45:30;24.60;61.40
13223;DHT22;6676;45.192;5.722;2023-04-24T16:48:24;24.70;61.20
13223;DHT22;6676;45.192;5.722;2023-04-24T16:51:16;22.80;64.40
13223;DHT22;6676;45.192;5.722;2023-04-24T16:54:07;21.40;66.10
13223;DHT22;6676;45.192;5.722;2023-04-24T16:56:59;21.40;67.00
13223;DHT22;6676;45.192;5.722;2023-04-24T16:59:51;21.20;67.10
13223;DHT22;6676;45.192;5.722;2023-04-24T17:02:42;21.50;67.80
13223;DHT22;6676;45.192;5.722;2023-04-24T17:05:36;22.80;69.30
13223;DHT22;6676;45.192;5.722;2023-04-24T17:08:27;23.60;69.00
13223;DHT22;6676;45.192;5.722;2023-04-24T17:11:20;23.50;67.20
13223;DHT22;6676;45.192;5.722;2023-04-24T17:14:11;22.50;65.60
13223;DHT22;6676;45.192;5.722;2023-04-24T17:17:03;21.70;67.10
13223;DHT22;6676;45.192;5.722;2023-04-24T17:19:59;21.20;69.10
13223;DHT22;6676;45.192;5.722;2023-04-24T17:25:36;21.70;71.10
13223;DHT22;6676;45.192;5.722;2023-04-24T17:28:31;21.60;71.80
13223;DHT22;6676;45.192;5.722;2023-04-24T17:31:25;21.30;69.40
13223;DHT22;6676;45.192;5.722;2023-04-24T17:34:16;21.20;71.20
13223;DHT22;6676;45.192;5.722;2023-04-24T17:37:08;21.40;72.00
13223;DHT22;6676;45.192;5.722;2023-04-24T17:40:09;21.40;72.90
13223;DHT22;6676;45.192;5.722;2023-04-24T17:45:40;20.60;71.90
13223;DHT22;6676;45.192;5.722;2023-04-24T17:48:32;20.50;72.20
13223;DHT22;6676;45.192;5.722;2023-04-24T17:51:23;20.00;73.70
13223;DHT22;6676;45.192;5.722;2023-04-24T17:54:18;19.80;74.90
13223;DHT22;6676;45.192;5.722;2023-04-24T17:57:14;19.70;75.50
13223;DHT22;6676;45.192;5.722;2023-04-24T18:00:16;19.40;76.40
13223;DHT22;6676;45.192;5.722;2023-04-24T18:03:08;19.30;77.30
13223;DHT22;6676;45.192;5.722;2023-04-24T18:08:48;18.90;78.20
13223;DHT22;6676;45.192;5.722;2023-04-24T18:11:41;18.70;79.20
13223;DHT22;6676;45.192;5.722;2023-04-24T18:14:33;18.50;79.60
13223;DHT22;6676;45.192;5.722;2023-04-24T18:17:26;18.20;80.00
13223;DHT22;6676;45.192;5.722;2023-04-24T18:20:19;18.10;81.30
13223;DHT22;6676;45.192;5.722;2023-04-24T18:23:11;18.00;82.30
13223;DHT22;6676;45.192;5.722;2023-04-24T18:26:06;17.90;83.00
13223;DHT22;6676;45.192;5.722;2023-04-24T18:29:02;17.90;83.30
13223;DHT22;6676;45.192;5.722;2023-04-24T18:32:00;17.70;84.50
13223;DHT22;6676;45.192;5.722;2023-04-24T18:35:00;17.60;86.90
13223;DHT22;6676;45.192;5.722;2023-04-24T18:37:57;17.40;88.90
13223;DHT22;6676;45.192;5.722;2023-04-24T18:40:49;17.30;90.00
13223;DHT22;6676;45.192;5.722;2023-04-24T18:43:41;17.10;90.60
13223;DHT22;6676;45.192;5.722;2023-04-24T18:46:36;17.00;91.50
13223;DHT22;6676;45.192;5.722;2023-04-24T18:49:29;16.90;92.10
13223;DHT22;6676;45.192;5.722;2023-04-24T18:52:22;16.90;93.30
13223;DHT22;6676;45.192;5.722;2023-04-24T18:55:14;16.80;94.30
13223;DHT22;6676;45.192;5.722;2023-04-24T18:58:05;17.00;94.50
13223;DHT22;6676;45.192;5.722;2023-04-24T19:00:57;17.00;94.70
13223;DHT22;6676;45.192;5.722;2023-04-24T19:03:52;16.70;95.50